sensor_id;sensor_type;location;lat;lon;timestamp;pressure;altitude;pressure_sealevel;temperature;humidity
61136;BME280;47021;51.340;12.432;2023-02-28T00:26:57;101561.50;;;5.21;52.12
61136;BME280;47021;51.340;12.432;2023-02-28T00:29:43;101559.31;;;5.34;52.09
61136;BME280;47021;51.340;12.432;2023-02-28T00:32:11;101564.34;;;4.92;52.92
61136;BME280;47021;51.340;12.432;2023-02-28T00:48:45;101551.38;;;4.46;54.96
61136;BME280;47021;51.340;12.432;2023-02-28T00:51:21;101560.06;;;4.18;55.51
61136;BME280;47021;51.340;12.432;2023-02-28T00:53:48;101552.16;;;4.23;55.31
61136;BME280;47021;51.340;12.432;2023-02-28T00:56:21;101562.47;;;4.49;54.80
61136;BME280;47021;51.340;12.432;2023-02-28T00:58:48;101559.38;;;4.63;54.45
61136;BME280;47021;51.340;12.432;2023-02-28T01:09:30;101549.88;;;4.14;55.44
61136;BME280;47021;51.340;12.432;2023-02-28T01:15:11;101549.63;;;4.21;56.03
61136;BME280;47021;51.340;12.432;2023-02-28T01:20:21;101546.94;;;4.49;55.23
61136;BME280;47021;51.340;12.432;2023-02-28T01:22:49;101551.47;;;4.43;55.63
61136;BME280;47021;51.340;12.432;2023-02-28T01:25:21;101555.59;;;4.23;55.27
61136;BME280;47021;51.340;12.432;2023-02-28T01:27:54;101552.09;;;4.24;55.24
61136;BME280;47021;51.340;12.432;2023-02-28T01:30:30;101551.22;;;3.99;56.01
61136;BME280;47021;51.340;12.432;2023-02-28T01:33:08;101556.16;;;4.56;54.91
61136;BME280;47021;51.340;12.432;2023-02-28T01:35:34;101553.97;;;4.19;55.25
61136;BME280;47021;51.340;12.432;2023-02-28T01:38:12;101552.25;;;4.20;56.08
61136;BME280;47021;51.340;12.432;2023-02-28T01:43:55;101544.28;;;4.51;54.95
61136;BME280;47021;51.340;12.432;2023-02-28T01:46:25;101548.22;;;3.87;56.69
61136;BME280;47021;51.340;12.432;2023-02-28T01:57:09;101534.66;;;4.79;54.58
61136;BME280;47021;51.340;12.432;2023-02-28T01:59:45;101538.22;;;4.75;54.55
61136;BME280;47021;51.340;12.432;2023-02-28T02:02:11;101529.63;;;4.51;55.13
61136;BME280;47021;51.340;12.432;2023-02-28T02:04:39;101534.16;;;4.68;54.72
61136;BME280;47021;51.340;12.432;2023-02-28T02:07:06;101536.97;;;4.14;56.42
61136;BME280;47021;51.340;12.432;2023-02-28T02:09:46;101525.97;;;4.57;55.18
61136;BME280;47021;51.340;12.432;2023-02-28T02:12:27;101529.34;;;3.85;56.46
61136;BME280;47021;51.340;12.432;2023-02-28T02:17:51;101522.78;;;4.25;55.80
61136;BME280;47021;51.340;12.432;2023-02-28T02:20:38;101518.50;;;4.24;55.86
61136;BME280;47021;51.340;12.432;2023-02-28T02:28:40;101515.50;;;4.37;55.46
61136;BME280;47021;51.340;12.432;2023-02-28T02:36:38;101518.00;;;3.89;56.18
61136;BME280;47021;51.340;12.432;2023-02-28T02:41:56;101521.25;;;4.20;56.12
61136;BME280;47021;51.340;12.432;2023-02-28T02:44:33;101519.16;;;3.80;56.95
61136;BME280;47021;51.340;12.432;2023-02-28T02:49:51;101522.88;;;3.72;57.23
61136;BME280;47021;51.340;12.432;2023-02-28T02:52:36;101531.34;;;3.49;57.61
61136;BME280;47021;51.340;12.432;2023-02-28T02:55:07;101528.47;;;3.58;57.87
61136;BME280;47021;51.340;12.432;2023-02-28T03:03:19;101522.56;;;3.81;57.27
61136;BME280;47021;51.340;12.432;2023-02-28T03:05:50;101528.31;;;3.64;57.38
61136;BME280;47021;51.340;12.432;2023-02-28T03:08:33;101521.00;;;3.50;57.76
61136;BME280;47021;51.340;12.432;2023-02-28T03:10:59;101527.38;;;3.65;57.61
61136;BME280;47021;51.340;12.432;2023-02-28T03:29:50;101533.84;;;3.78;57.16
61136;BME280;47021;51.340;12.432;2023-02-28T03:32:22;101535.81;;;3.44;57.96
61136;BME280;47021;51.340;12.432;2023-02-28T03:35:07;101530.59;;;3.73;57.48
61136;BME280;47021;51.340;12.432;2023-02-28T03:37:36;101532.56;;;3.65;56.98
61136;BME280;47021;51.340;12.432;2023-02-28T03:40:22;101535.25;;;3.62;57.55
61136;BME280;47021;51.340;12.432;2023-02-28T03:42:59;101530.63;;;3.72;57.41
61136;BME280;47021;51.340;12.432;2023-02-28T03:56:40;101534.13;;;3.69;57.35
61136;BME280;47021;51.340;12.432;2023-02-28T03:59:25;101537.41;;;3.76;57.33
61136;BME280;47021;51.340;12.432;2023-02-28T04:02:04;101546.34;;;3.38;58.29
61136;BME280;47021;51.340;12.432;2023-02-28T04:04:32;101537.38;;;3.22;58.98
61136;BME280;47021;51.340;12.432;2023-02-28T04:07:08;101545.03;;;3.52;57.70
61136;BME280;47021;51.340;12.432;2023-02-28T04:09:37;101537.03;;;3.86;56.79
61136;BME280;47021;51.340;12.432;2023-02-28T04:12:04;101536.50;;;4.03;56.63
61136;BME280;47021;51.340;12.432;2023-02-28T04:14:36;101535.25;;;3.62;57.67
61136;BME280;47021;51.340;12.432;2023-02-28T04:19:53;101539.81;;;3.54;57.56
61136;BME280;47021;51.340;12.432;2023-02-28T04:22:20;101544.69;;;3.63;58.06
61136;BME280;47021;51.340;12.432;2023-02-28T04:24:52;101536.72;;;3.69;57.86
61136;BME280;47021;51.340;12.432;2023-02-28T04:27:25;101544.97;;;3.54;57.66
61136;BME280;47021;51.340;12.432;2023-02-28T04:32:21;101549.63;;;3.69;56.94
61136;BME280;47021;51.340;12.432;2023-02-28T04:34:47;101558.72;;;3.81;56.83
61136;BME280;47021;51.340;12.432;2023-02-28T04:37:16;101554.13;;;3.90;56.62
61136;BME280;47021;51.340;12.432;2023-02-28T04:40:03;101551.88;;;4.06;56.02
61136;BME280;47021;51.340;12.432;2023-02-28T04:45:12;101559.00;;;3.45;57.21
61136;BME280;47021;51.340;12.432;2023-02-28T04:47:37;101553.63;;;3.79;56.71
61136;BME280;47021;51.340;12.432;2023-02-28T04:50:03;101564.63;;;3.58;56.73
61136;BME280;47021;51.340;12.432;2023-02-28T04:52:35;101557.09;;;3.78;56.38
61136;BME280;47021;51.340;12.432;2023-02-28T04:55:11;101555.97;;;3.87;55.60
61136;BME280;47021;51.340;12.432;2023-02-28T04:57:36;101552.91;;;3.74;56.20
61136;BME280;47021;51.340;12.432;2023-02-28T05:00:13;101555.47;;;3.76;56.42
61136;BME280;47021;51.340;12.432;2023-02-28T05:02:39;101556.13;;;3.82;55.73
61136;BME280;47021;51.340;12.432;2023-02-28T05:05:04;101557.00;;;3.81;55.36
61136;BME280;47021;51.340;12.432;2023-02-28T05:07:36;101548.81;;;3.95;54.92
61136;BME280;47021;51.340;12.432;2023-02-28T05:10:02;101555.72;;;3.40;55.86
61136;BME280;47021;51.340;12.432;2023-02-28T05:12:34;101565.25;;;3.38;56.16
61136;BME280;47021;51.340;12.432;2023-02-28T05:17:31;101565.34;;;3.63;55.61
61136;BME280;47021;51.340;12.432;2023-02-28T05:19:58;101565.19;;;3.68;55.12
61136;BME280;47021;51.340;12.432;2023-02-28T05:25:08;101567.59;;;3.46;55.31
61136;BME280;47021;51.340;12.432;2023-02-28T05:27:43;101562.03;;;3.86;54.75
61136;BME280;47021;51.340;12.432;2023-02-28T05:30:09;101564.03;;;3.50;54.97
61136;BME280;47021;51.340;12.432;2023-02-28T05:32:52;101568.22;;;3.54;54.49
61136;BME280;47021;51.340;12.432;2023-02-28T05:35:27;101576.56;;;3.34;54.49
61136;BME280;47021;51.340;12.432;2023-02-28T05:43:27;101567.75;;;3.41;54.66
61136;BME280;47021;51.340;12.432;2023-02-28T05:46:26;101574.78;;;3.64;54.14
61136;BME280;47021;51.340;12.432;2023-02-28T05:48:52;101580.81;;;3.37;55.24
61136;BME280;47021;51.340;12.432;2023-02-28T05:51:31;101576.06;;;3.22;55.91
61136;BME280;47021;51.340;12.432;2023-02-28T05:54:09;101585.50;;;2.94;56.59
61136;BME280;47021;51.340;12.432;2023-02-28T05:56:34;101579.69;;;3.16;56.16
61136;BME280;47021;51.340;12.432;2023-02-28T06:01:50;101598.97;;;3.05;56.21
61136;BME280;47021;51.340;12.432;2023-02-28T06:04:27;101593.63;;;2.80;56.49
61136;BME280;47021;51.340;12.432;2023-02-28T06:07:05;101598.63;;;3.44;55.25
61136;BME280;47021;51.340;12.432;2023-02-28T06:09:36;101597.69;;;3.47;54.93
61136;BME280;47021;51.340;12.432;2023-02-28T06:12:03;101600.47;;;3.41;55.88
61136;BME280;47021;51.340;12.432;2023-02-28T06:14:33;101605.25;;;3.24;55.83
61136;BME280;47021;51.340;12.432;2023-02-28T06:17:04;101611.41;;;2.91;57.61
61136;BME280;47021;51.340;12.432;2023-02-28T06:19:29;101609.84;;;3.14;56.17
61136;BME280;47021;51.340;12.432;2023-02-28T06:21:55;101608.19;;;3.41;55.69
61136;BME280;47021;51.340;12.432;2023-02-28T06:24:23;101615.44;;;3.28;56.13
61136;BME280;47021;51.340;12.432;2023-02-28T06:26:50;101615.81;;;3.45;56.04
61136;BME280;47021;51.340;12.432;2023-02-28T06:29:32;101621.31;;;3.04;57.07
61136;BME280;47021;51.340;12.432;2023-02-28T06:40:35;101626.66;;;3.56;55.87
61136;BME280;47021;51.340;12.432;2023-02-28T07:02:45;101645.94;;;3.45;55.82
61136;BME280;47021;51.340;12.432;2023-02-28T07:18:57;101660.31;;;3.83;55.28
61136;BME280;47021;51.340;12.432;2023-02-28T07:30:04;101661.69;;;3.93;54.18
61136;BME280;47021;51.340;12.432;2023-02-28T07:52:21;101670.13;;;3.70;53.02
61136;BME280;47021;51.340;12.432;2023-02-28T08:00:26;101662.63;;;3.90;52.30
61136;BME280;47021;51.340;12.432;2023-02-28T08:05:41;101665.72;;;4.01;52.11
61136;BME280;47021;51.340;12.432;2023-02-28T08:30:33;101652.88;;;5.00;48.22
61136;BME280;47021;51.340;12.432;2023-02-28T08:36:15;101649.34;;;5.03;47.33
61136;BME280;47021;51.340;12.432;2023-02-28T08:38:57;101659.94;;;5.66;45.90
61136;BME280;47021;51.340;12.432;2023-02-28T08:47:22;101660.28;;;4.86;45.66
61136;BME280;47021;51.340;12.432;2023-02-28T09:17:29;101662.66;;;5.63;43.87
61136;BME280;47021;51.340;12.432;2023-02-28T09:25:35;101677.44;;;5.59;44.38
61136;BME280;47021;51.340;12.432;2023-02-28T10:20:49;101668.22;;;6.19;42.07
61136;BME280;47021;51.340;12.432;2023-02-28T10:23:38;101666.09;;;6.50;40.53
61136;BME280;47021;51.340;12.432;2023-02-28T10:34:38;101654.16;;;6.46;41.35
61136;BME280;47021;51.340;12.432;2023-02-28T10:39:54;101643.72;;;7.06;40.14
61136;BME280;47021;51.340;12.432;2023-02-28T10:51:00;101643.47;;;6.92;41.62
61136;BME280;47021;51.340;12.432;2023-02-28T11:10:20;101623.16;;;7.02;40.71
61136;BME280;47021;51.340;12.432;2023-02-28T12:00:04;101611.47;;;6.53;42.57
61136;BME280;47021;51.340;12.432;2023-02-28T12:30:03;101588.13;;;7.48;40.56
61136;BME280;47021;51.340;12.432;2023-02-28T18:13:39;101544.00;;;5.71;50.87
61136;BME280;47021;51.340;12.432;2023-02-28T18:16:05;101545.09;;;5.65;51.54
61136;BME280;47021;51.340;12.432;2023-02-28T18:18:30;101546.59;;;5.28;51.96
61136;BME280;47021;51.340;12.432;2023-02-28T18:20:56;101555.72;;;5.15;52.58
61136;BME280;47021;51.340;12.432;2023-02-28T18:23:21;101559.03;;;5.18;52.39
61136;BME280;47021;51.340;12.432;2023-02-28T18:25:50;101552.16;;;5.40;51.78
61136;BME280;47021;51.340;12.432;2023-02-28T18:28:16;101556.56;;;5.15;52.02
61136;BME280;47021;51.340;12.432;2023-02-28T18:30:43;101551.91;;;5.02;52.37
61136;BME280;47021;51.340;12.432;2023-02-28T18:35:37;101551.78;;;5.05;52.95
61136;BME280;47021;51.340;12.432;2023-02-28T18:38:04;101557.81;;;5.05;52.88
61136;BME280;47021;51.340;12.432;2023-02-28T18:40:42;101550.31;;;4.97;52.70
61136;BME280;47021;51.340;12.432;2023-02-28T18:43:07;101552.13;;;4.95;52.47
61136;BME280;47021;51.340;12.432;2023-02-28T18:45:48;101547.88;;;5.16;51.63
61136;BME280;47021;51.340;12.432;2023-02-28T18:48:19;101545.25;;;5.18;52.59
61136;BME280;47021;51.340;12.432;2023-02-28T18:50:45;101532.72;;;5.07;52.68
61136;BME280;47021;51.340;12.432;2023-02-28T18:58:44;101544.16;;;5.02;53.72
61136;BME280;47021;51.340;12.432;2023-02-28T19:01:24;101539.78;;;5.02;53.52
61136;BME280;47021;51.340;12.432;2023-02-28T19:07:08;101540.88;;;4.73;54.50
61136;BME280;47021;51.340;12.432;2023-02-28T19:09:39;101543.38;;;4.52;55.00
61136;BME280;47021;51.340;12.432;2023-02-28T19:12:04;101541.75;;;4.24;55.17
61136;BME280;47021;51.340;12.432;2023-02-28T19:14:44;101540.44;;;4.13;55.66
61136;BME280;47021;51.340;12.432;2023-02-28T19:17:09;101537.53;;;4.22;55.92
61136;BME280;47021;51.340;12.432;2023-02-28T19:19:37;101539.69;;;4.34;54.99
61136;BME280;47021;51.340;12.432;2023-02-28T19:24:59;101549.72;;;4.18;55.93
61136;BME280;47021;51.340;12.432;2023-02-28T19:27:40;101540.56;;;4.10;55.25
61136;BME280;47021;51.340;12.432;2023-02-28T19:30:06;101549.56;;;4.23;54.71
61136;BME280;47021;51.340;12.432;2023-02-28T19:32:39;101550.59;;;3.93;55.87
61136;BME280;47021;51.340;12.432;2023-02-28T19:35:07;101549.97;;;4.11;55.75
61136;BME280;47021;51.340;12.432;2023-02-28T19:37:38;101548.94;;;4.16;56.22
61136;BME280;47021;51.340;12.432;2023-02-28T19:40:05;101547.38;;;3.86;55.76
61136;BME280;47021;51.340;12.432;2023-02-28T19:42:30;101552.38;;;3.65;56.63
61136;BME280;47021;51.340;12.432;2023-02-28T19:45:07;101560.03;;;3.68;56.88
61136;BME280;47021;51.340;12.432;2023-02-28T19:47:48;101560.88;;;3.68;56.39
61136;BME280;47021;51.340;12.432;2023-02-28T19:50:21;101561.31;;;3.54;57.19
61136;BME280;47021;51.340;12.432;2023-02-28T19:52:47;101555.91;;;3.88;55.52
61136;BME280;47021;51.340;12.432;2023-02-28T20:09:05;101567.72;;;3.69;56.59
61136;BME280;47021;51.340;12.432;2023-02-28T20:11:48;101565.47;;;3.58;57.78
61136;BME280;47021;51.340;12.432;2023-02-28T20:14:24;101565.44;;;3.86;56.98
61136;BME280;47021;51.340;12.432;2023-02-28T20:19:38;101565.03;;;3.46;57.97
61136;BME280;47021;51.340;12.432;2023-02-28T20:27:41;101579.56;;;3.21;58.53
61136;BME280;47021;51.340;12.432;2023-02-28T20:30:09;101579.53;;;3.50;56.57
61136;BME280;47021;51.340;12.432;2023-02-28T20:32:37;101578.97;;;3.40;58.03
61136;BME280;47021;51.340;12.432;2023-02-28T20:35:02;101589.78;;;3.51;56.94
61136;BME280;47021;51.340;12.432;2023-02-28T20:37:35;101580.47;;;3.47;56.54
61136;BME280;47021;51.340;12.432;2023-02-28T20:40:06;101581.75;;;3.62;56.83
61136;BME280;47021;51.340;12.432;2023-02-28T20:42:40;101577.53;;;3.58;57.26
61136;BME280;47021;51.340;12.432;2023-02-28T20:45:07;101572.06;;;3.69;56.79
61136;BME280;47021;51.340;12.432;2023-02-28T20:47:32;101574.38;;;3.76;56.83
61136;BME280;47021;51.340;12.432;2023-02-28T20:55:18;101577.22;;;3.41;57.59
61136;BME280;47021;51.340;12.432;2023-02-28T20:57:53;101574.81;;;3.35;57.39
61136;BME280;47021;51.340;12.432;2023-02-28T21:00:18;101573.28;;;3.29;57.39
61136;BME280;47021;51.340;12.432;2023-02-28T21:02:52;101575.09;;;2.97;58.68
61136;BME280;47021;51.340;12.432;2023-02-28T21:05:18;101572.06;;;3.12;59.06
61136;BME280;47021;51.340;12.432;2023-02-28T21:07:45;101572.13;;;3.10;58.50
61136;BME280;47021;51.340;12.432;2023-02-28T21:10:11;101567.63;;;3.17;59.10
61136;BME280;47021;51.340;12.432;2023-02-28T21:12:37;101564.53;;;3.33;58.73
61136;BME280;47021;51.340;12.432;2023-02-28T21:15:08;101561.81;;;3.38;58.60
61136;BME280;47021;51.340;12.432;2023-02-28T21:20:29;101571.63;;;2.67;59.53
61136;BME280;47021;51.340;12.432;2023-02-28T21:23:05;101568.75;;;2.47;60.63
61136;BME280;47021;51.340;12.432;2023-02-28T21:25:31;101571.25;;;2.50;60.12
61136;BME280;47021;51.340;12.432;2023-02-28T21:30:47;101576.88;;;2.64;59.10
61136;BME280;47021;51.340;12.432;2023-02-28T21:33:20;101573.22;;;2.72;59.15
61136;BME280;47021;51.340;12.432;2023-02-28T21:35:45;101573.97;;;2.76;59.17
61136;BME280;47021;51.340;12.432;2023-02-28T21:38:25;101572.50;;;2.97;59.05
61136;BME280;47021;51.340;12.432;2023-02-28T21:43:50;101569.59;;;2.78;59.03
61136;BME280;47021;51.340;12.432;2023-02-28T21:46:21;101569.66;;;3.06;58.23
61136;BME280;47021;51.340;12.432;2023-02-28T21:51:31;101572.78;;;2.88;57.66
61136;BME280;47021;51.340;12.432;2023-02-28T21:53:59;101572.59;;;2.94;58.02
61136;BME280;47021;51.340;12.432;2023-02-28T21:56:27;101562.19;;;2.97;58.70
61136;BME280;47021;51.340;12.432;2023-02-28T21:58:55;101569.00;;;2.99;59.18
61136;BME280;47021;51.340;12.432;2023-02-28T22:01:21;101563.91;;;2.98;58.75
61136;BME280;47021;51.340;12.432;2023-02-28T22:03:53;101560.25;;;3.05;58.39
61136;BME280;47021;51.340;12.432;2023-02-28T22:06:20;101554.38;;;3.00;58.36
61136;BME280;47021;51.340;12.432;2023-02-28T22:08:58;101570.59;;;3.03;58.33
61136;BME280;47021;51.340;12.432;2023-02-28T22:11:24;101558.03;;;2.91;58.40
61136;BME280;47021;51.340;12.432;2023-02-28T22:13:54;101559.75;;;2.92;58.59
61136;BME280;47021;51.340;12.432;2023-02-28T22:16:21;101554.59;;;2.92;58.65
61136;BME280;47021;51.340;12.432;2023-02-28T22:18:48;101558.81;;;2.95;58.59
61136;BME280;47021;51.340;12.432;2023-02-28T22:21:18;101560.59;;;2.93;58.41
61136;BME280;47021;51.340;12.432;2023-02-28T22:23:43;101560.59;;;2.93;58.40
61136;BME280;47021;51.340;12.432;2023-02-28T22:26:09;101556.16;;;2.67;58.72
61136;BME280;47021;51.340;12.432;2023-02-28T22:28:36;101557.41;;;2.54;59.45
61136;BME280;47021;51.340;12.432;2023-02-28T22:31:24;101556.97;;;2.69;59.40
61136;BME280;47021;51.340;12.432;2023-02-28T22:33:48;101566.56;;;2.64;59.40
61136;BME280;47021;51.340;12.432;2023-02-28T22:36:15;101559.06;;;2.56;59.38
61136;BME280;47021;51.340;12.432;2023-02-28T22:38:41;101555.31;;;2.36;59.83
61136;BME280;47021;51.340;12.432;2023-02-28T22:41:16;101559.25;;;2.17;60.68
61136;BME280;47021;51.340;12.432;2023-02-28T22:43:51;101560.34;;;2.06;60.93
61136;BME280;47021;51.340;12.432;2023-02-28T22:46:23;101560.41;;;2.05;61.63
61136;BME280;47021;51.340;12.432;2023-02-28T22:49:01;101547.84;;;2.27;60.92
61136;BME280;47021;51.340;12.432;2023-02-28T22:54:05;101556.25;;;2.33;59.63
61136;BME280;47021;51.340;12.432;2023-02-28T22:56:31;101553.09;;;2.22;60.59
61136;BME280;47021;51.340;12.432;2023-02-28T22:58:58;101558.94;;;2.29;60.49
61136;BME280;47021;51.340;12.432;2023-02-28T23:01:25;101544.09;;;2.38;60.42
61136;BME280;47021;51.340;12.432;2023-02-28T23:03:51;101554.22;;;2.44;59.69
61136;BME280;47021;51.340;12.432;2023-02-28T23:06:18;101555.56;;;2.25;59.34
61136;BME280;47021;51.340;12.432;2023-02-28T23:08:51;101568.97;;;2.05;60.22
61136;BME280;47021;51.340;12.432;2023-02-28T23:11:25;101575.50;;;1.85;61.14
61136;BME280;47021;51.340;12.432;2023-02-28T23:13:51;101586.19;;;1.68;61.77
61136;BME280;47021;51.340;12.432;2023-02-28T23:16:23;101584.91;;;1.49;62.20
61136;BME280;47021;51.340;12.432;2023-02-28T23:18:49;101593.25;;;1.59;61.44
61136;BME280;47021;51.340;12.432;2023-02-28T23:21:14;101587.16;;;1.64;61.22
61136;BME280;47021;51.340;12.432;2023-02-28T23:23:40;101597.06;;;1.81;60.28
61136;BME280;47021;51.340;12.432;2023-02-28T23:26:06;101601.03;;;1.94;59.66
61136;BME280;47021;51.340;12.432;2023-02-28T23:28:32;101596.47;;;2.05;59.71
61136;BME280;47021;51.340;12.432;2023-02-28T23:31:01;101601.66;;;2.02;59.29
61136;BME280;47021;51.340;12.432;2023-02-28T23:33:31;101605.56;;;2.20;59.06
61136;BME280;47021;51.340;12.432;2023-02-28T23:36:12;101604.66;;;2.21;58.83
61136;BME280;47021;51.340;12.432;2023-02-28T23:38:47;101592.63;;;2.21;59.02
61136;BME280;47021;51.340;12.432;2023-02-28T23:41:13;101599.63;;;2.16;59.06
61136;BME280;47021;51.340;12.432;2023-02-28T23:43:45;101588.44;;;2.15;59.48
61136;BME280;47021;51.340;12.432;2023-02-28T23:46:11;101591.88;;;2.50;58.08
61136;BME280;47021;51.340;12.432;2023-02-28T23:48:37;101590.47;;;2.70;57.77
61136;BME280;47021;51.340;12.432;2023-02-28T23:51:03;101588.16;;;2.28;58.33
61136;BME280;47021;51.340;12.432;2023-02-28T23:53:29;101590.47;;;2.38;58.18
61136;BME280;47021;51.340;12.432;2023-02-28T23:55:57;101590.47;;;2.70;57.30
61136;BME280;47021;51.340;12.432;2023-02-28T23:58:23;101579.97;;;2.76;57.07
